Time;durP1;ratioP1;P1;durP2;ratioP2;P2;SDS_P1;SDS_P2;PMS_P1;PMS_P2;Temp;Humidity;BMP_temperature;BMP_pressure;BME280_temperature;BME280_humidity;BME280_pressure;Samples;Min_cycle;Max_cycle;Signal;HPM_P1;HPM_P2
2023/02/14 00:01:57;;;;;;;30.90;17.58;;;;;;;2.49;100.00;103283.56;5084254;28;20035;-79
2023/02/14 00:04:23;;;;;;;29.63;17.30;;;;;;;2.48;100.00;103281.75;5081195;28;20032;-76
2023/02/14 00:06:48;;;;;;;30.30;17.02;;;;;;;2.42;100.00;103285.72;5081574;28;20021;-76
2023/02/14 00:09:16;;;;;;;29.25;16.70;;;;;;;2.36;100.00;103285.25;5082478;28;20028;-78
2023/02/14 00:11:43;;;;;;;27.67;15.80;;;;;;;2.30;100.00;103286.47;5081649;28;20028;-76
2023/02/14 00:16:53;;;;;;;26.42;14.63;;;;;;;2.14;100.00;103273.94;5083654;28;20105;-76
2023/02/14 00:19:19;;;;;;;27.10;15.40;;;;;;;1.87;100.00;103273.59;5081702;28;20111;-76
2023/02/14 00:21:45;;;;;;;27.73;15.93;;;;;;;1.86;100.00;103277.00;5082091;28;20387;-76
2023/02/14 00:24:22;;;;;;;28.00;15.70;;;;;;;1.77;100.00;103276.28;5082841;28;20032;-78
2023/02/14 00:26:48;;;;;;;27.00;15.18;;;;;;;1.87;100.00;103273.59;5082558;28;20380;-76
2023/02/14 00:29:17;;;;;;;27.42;15.65;;;;;;;2.00;100.00;103271.16;5082170;28;20027;-76
2023/02/14 00:31:43;;;;;;;27.73;15.52;;;;;;;1.82;100.00;103262.81;5081593;28;20074;-76
2023/02/14 00:34:09;;;;;;;28.13;16.00;;;;;;;1.71;100.00;103261.94;5083091;28;20421;-76
2023/02/14 00:36:35;;;;;;;28.55;16.42;;;;;;;1.84;100.00;103268.16;5080484;28;20059;-76
2023/02/14 00:39:03;;;;;;;30.00;17.55;;;;;;;1.65;100.00;103261.47;5083935;28;20032;-76
2023/02/14 00:41:28;;;;;;;30.92;17.63;;;;;;;1.52;100.00;103258.69;5080360;28;20035;-76
2023/02/14 00:43:54;;;;;;;34.10;20.75;;;;;;;1.58;100.00;103253.03;5083318;28;20115;-76
2023/02/14 00:46:21;;;;;;;31.55;19.17;;;;;;;1.57;100.00;103259.94;5083654;28;20052;-76
2023/02/14 00:48:47;;;;;;;32.63;19.85;;;;;;;1.48;100.00;103260.13;5085676;28;20116;-80
2023/02/14 00:51:13;;;;;;;36.85;20.98;;;;;;;1.54;100.00;103247.59;5086060;28;20073;-82
2023/02/14 00:53:39;;;;;;;34.15;20.20;;;;;;;1.65;100.00;103253.66;5084486;28;20033;-79
2023/02/14 00:56:06;;;;;;;34.53;20.42;;;;;;;1.41;100.00;103255.19;5086850;28;20020;-77
2023/02/14 00:58:31;;;;;;;36.47;20.98;;;;;;;1.46;100.00;103256.50;5082339;28;20022;-78
2023/02/14 01:00:57;;;;;;;35.88;20.27;;;;;;;1.44;100.00;103249.31;5087030;28;20387;-80
2023/02/14 01:03:22;;;;;;;39.08;23.75;;;;;;;1.34;100.00;103248.59;5084305;28;20111;-81
2023/02/14 01:05:48;;;;;;;38.22;24.08;;;;;;;1.27;100.00;103242.75;5085422;28;20111;-78
2023/02/14 01:08:14;;;;;;;41.78;26.10;;;;;;;1.15;100.00;103250.50;5085545;28;20475;-79
2023/02/14 01:10:40;;;;;;;44.03;27.48;;;;;;;1.07;100.00;103251.59;5084238;28;20036;-79
2023/02/14 01:13:05;;;;;;;42.15;27.55;;;;;;;1.01;100.00;103250.28;5086408;28;20039;-80
2023/02/14 01:15:32;;;;;;;41.97;26.27;;;;;;;0.90;100.00;103245.88;5065526;28;20463;-79
2023/02/14 01:17:58;;;;;;;41.75;26.10;;;;;;;0.92;100.00;103251.22;5086483;28;20080;-80
2023/02/14 01:20:24;;;;;;;40.00;25.05;;;;;;;0.88;100.00;103255.28;5083868;28;20036;-79
2023/02/14 01:22:50;;;;;;;38.58;24.40;;;;;;;0.78;100.00;103252.69;5085607;28;20103;-80
2023/02/14 01:25:15;;;;;;;37.80;23.75;;;;;;;0.75;100.00;103253.34;5084948;28;20116;-81
2023/02/14 01:27:40;;;;;;;37.65;23.70;;;;;;;0.79;100.00;103251.94;5084011;28;20039;-81
2023/02/14 01:30:07;;;;;;;34.85;21.63;;;;;;;0.67;100.00;103257.00;5086336;28;20111;-81
2023/02/14 01:32:32;;;;;;;34.60;21.05;;;;;;;0.66;100.00;103256.09;5083121;28;20082;-81
2023/02/14 01:34:58;;;;;;;33.20;20.33;;;;;;;0.47;100.00;103263.16;5086277;28;20024;-78
2023/02/14 01:37:23;;;;;;;34.13;20.88;;;;;;;0.59;100.00;103256.38;5083785;28;20028;-79
2023/02/14 01:39:49;;;;;;;36.13;22.67;;;;;;;0.55;100.00;103256.88;5084936;28;20463;-80
2023/02/14 01:42:14;;;;;;;37.30;22.73;;;;;;;0.60;100.00;103257.31;5084926;28;20086;-81
2023/02/14 01:44:39;;;;;;;35.33;22.67;;;;;;;0.62;100.00;103255.72;5083533;28;20040;-76
2023/02/14 01:47:08;;;;;;;34.88;21.60;;;;;;;0.49;100.00;103266.78;5085850;28;20089;-76
2023/02/14 01:49:48;;;;;;;33.75;21.08;;;;;;;0.42;100.00;103272.25;5082849;28;20021;-77
2023/02/14 01:52:18;;;;;;;33.30;20.70;;;;;;;0.34;100.00;103272.53;5084111;28;20028;-76
2023/02/14 01:54:58;;;;;;;35.95;22.38;;;;;;;0.29;100.00;103279.06;5084465;28;20039;-76
2023/02/14 01:57:30;;;;;;;33.60;21.05;;;;;;;0.30;100.00;103273.03;5084653;28;20124;-76
2023/02/14 02:00:55;;;;;;;34.53;21.27;;;;;;;0.27;100.00;103271.88;5082873;28;20463;-76
2023/02/14 02:02:44;;;;;;;35.92;21.20;;;;;;;0.29;100.00;103272.91;5083547;28;20090;-76
2023/02/14 02:05:10;;;;;;;34.40;20.73;;;;;;;0.43;100.00;103271.50;5085210;28;20032;-76
2023/02/14 02:07:36;;;;;;;34.88;21.27;;;;;;;0.51;100.00;103265.22;5082381;28;20433;-76
2023/02/14 02:10:03;;;;;;;37.78;22.83;;;;;;;0.31;100.00;103259.25;5086004;28;20065;-76
2023/02/14 02:12:29;;;;;;;38.45;25.30;;;;;;;0.27;100.00;103257.16;5082248;28;20028;-76
2023/02/14 02:14:57;;;;;;;38.47;24.23;;;;;;;0.24;100.00;103250.81;5084842;28;20054;-76
2023/02/14 02:17:35;;;;;;;38.65;24.50;;;;;;;0.17;100.00;103255.50;5082936;28;20119;-77
2023/02/14 02:20:13;;;;;;;36.05;23.70;;;;;;;0.19;100.00;103245.22;5082050;28;20035;-76
2023/02/14 02:23:07;;;;;;;36.25;22.95;;;;;;;0.07;100.00;103247.66;5082604;28;20024;-76
2023/02/14 02:25:53;;;;;;;36.88;23.05;;;;;;;0.10;100.00;103239.22;5081983;28;20025;-76
2023/02/14 02:28:24;;;;;;;35.88;21.95;;;;;;;0.09;100.00;103237.41;5083838;28;20029;-77
2023/02/14 02:31:19;;;;;;;35.03;22.33;;;;;;;0.11;100.00;103228.94;5083343;28;20028;-77
2023/02/14 02:34:10;;;;;;;37.60;22.25;;;;;;;0.13;100.00;103231.66;5093762;28;20036;-76
2023/02/14 02:36:54;;;;;;;36.20;22.60;;;;;;;0.17;100.00;103228.56;5081915;28;20028;-76
2023/02/14 02:40:00;;;;;;;35.55;22.60;;;;;;;0.19;100.00;103231.28;5081806;28;20115;-78
2023/02/14 02:42:26;;;;;;;34.58;21.08;;;;;;;0.12;100.00;103222.06;5069341;28;20071;-77
2023/02/14 02:45:27;;;;;;;33.28;20.80;;;;;;;0.07;100.00;103225.94;5083835;28;20083;-76
2023/02/14 02:48:09;;;;;;;34.58;20.52;;;;;;;-0.03;100.00;103225.19;5073545;28;20091;-76
2023/02/14 02:53:52;;;;;;;34.42;21.02;;;;;;;0.05;100.00;103227.53;5085034;28;20031;-78
2023/02/14 02:59:19;;;;;;;34.28;21.02;;;;;;;-0.10;100.00;103228.03;5082045;28;20074;-76
2023/02/14 03:02:02;;;;;;;34.58;21.83;;;;;;;-0.16;100.00;103217.13;5083562;28;20031;-76
2023/02/14 03:04:51;;;;;;;33.20;21.05;;;;;;;-0.16;100.00;103224.91;5084653;28;20379;-78
2023/02/14 03:07:35;;;;;;;34.47;21.38;;;;;;;-0.19;100.00;103233.34;5083182;28;20066;-76
2023/02/14 03:10:04;;;;;;;35.25;20.98;;;;;;;-0.17;100.00;103233.50;5080457;28;20036;-76
2023/02/14 03:12:32;;;;;;;37.40;23.63;;;;;;;-0.22;100.00;103238.31;5084366;28;20471;-77
2023/02/14 03:15:26;;;;;;;39.20;25.50;;;;;;;-0.18;100.00;103242.06;5081371;28;20039;-76
2023/02/14 03:18:19;;;;;;;42.60;26.90;;;;;;;-0.18;100.00;103240.34;5083324;28;20028;-76
2023/02/14 03:21:31;;;;;;;39.33;25.38;;;;;;;-0.19;100.00;103240.22;5082381;28;20021;-76
2023/02/14 03:23:58;;;;;;;38.17;23.98;;;;;;;-0.38;100.00;103243.84;5075099;28;20039;-76
2023/02/14 03:26:36;;;;;;;39.85;25.42;;;;;;;-0.37;100.00;103249.94;5081803;28;20032;-82
2023/02/14 03:29:30;;;;;;;38.15;24.40;;;;;;;-0.42;100.00;103243.47;5080937;28;20421;-79
2023/02/14 03:32:22;;;;;;;37.00;23.95;;;;;;;-0.39;100.00;103252.41;5083984;28;20032;-79
2023/02/14 03:34:52;;;;;;;37.92;23.02;;;;;;;-0.46;100.00;103256.97;5082599;28;20039;-81
2023/02/14 03:37:27;;;;;;;37.97;23.10;;;;;;;-0.42;100.00;103243.47;5082562;28;20028;-81
2023/02/14 03:40:14;;;;;;;35.00;21.73;;;;;;;-0.43;100.00;103245.13;5083153;28;20105;-82
2023/02/14 03:42:46;;;;;;;34.88;21.65;;;;;;;-0.59;100.00;103244.56;5081271;28;20024;-79
2023/02/14 03:45:20;;;;;;;34.90;22.08;;;;;;;-0.55;100.00;103247.56;5083423;28;20051;-79
2023/02/14 03:47:49;;;;;;;38.35;24.23;;;;;;;-0.59;100.00;103247.16;5082389;28;20115;-79
2023/02/14 03:50:18;;;;;;;38.50;24.77;;;;;;;-0.55;100.00;103255.34;5082857;28;20084;-78
2023/02/14 03:52:46;;;;;;;37.97;23.85;;;;;;;-0.52;100.00;103254.72;5081741;28;20021;-79
2023/02/14 03:55:15;;;;;;;36.75;23.77;;;;;;;-0.60;100.00;103248.81;5083363;28;20016;-79
2023/02/14 03:57:52;;;;;;;34.53;22.13;;;;;;;-0.59;100.00;103245.47;5081618;28;20021;-79
2023/02/14 04:00:18;;;;;;;35.00;22.25;;;;;;;-0.65;100.00;103241.44;5082344;28;20031;-78
2023/02/14 04:02:48;;;;;;;37.03;23.52;;;;;;;-0.72;100.00;103248.66;5081874;28;20150;-81
2023/02/14 04:05:23;;;;;;;35.42;22.35;;;;;;;-0.71;100.00;103245.28;5082991;28;20146;-81
2023/02/14 04:07:51;;;;;;;37.38;22.60;;;;;;;-0.77;100.00;103249.97;5082408;28;20033;-79
2023/02/14 04:10:19;;;;;;;36.28;22.20;;;;;;;-0.78;100.00;103253.31;5082391;28;20024;-81
2023/02/14 04:12:44;;;;;;;35.85;22.65;;;;;;;-0.82;100.00;103251.22;5081496;28;20035;-79
2023/02/14 04:15:10;;;;;;;37.85;24.52;;;;;;;-0.74;100.00;103245.03;5083542;28;20021;-76
2023/02/14 04:20:20;;;;;;;36.72;23.88;;;;;;;-0.66;100.00;103252.59;5083430;28;20116;-76
2023/02/14 04:22:45;;;;;;;37.33;22.83;;;;;;;-0.71;100.00;103247.91;5086495;28;20111;-77
2023/02/14 04:25:11;;;;;;;36.38;22.65;;;;;;;-0.73;100.00;103246.88;5083892;28;20036;-76
2023/02/14 04:27:36;;;;;;;36.25;22.92;;;;;;;-0.73;100.00;103251.13;5087592;28;20627;-76
2023/02/14 04:30:03;;;;;;;36.58;23.00;;;;;;;-0.78;100.00;103242.94;5083155;28;20483;-76
2023/02/14 04:32:28;;;;;;;37.35;23.70;;;;;;;-0.81;100.00;103247.84;5087634;28;20097;-76
2023/02/14 04:34:53;;;;;;;37.60;24.23;;;;;;;-0.84;100.00;103251.88;5085047;28;20471;-76
2023/02/14 04:37:19;;;;;;;36.20;23.67;;;;;;;-0.83;100.00;103243.28;5086045;28;20025;-76
2023/02/14 04:39:44;;;;;;;37.45;23.33;;;;;;;-0.89;100.00;103244.59;5086240;28;20074;-76
2023/02/14 04:42:10;;;;;;;38.03;24.73;;;;;;;-0.90;100.00;103247.06;5084597;28;20078;-76
2023/02/14 04:44:37;;;;;;;38.22;24.38;;;;;;;-0.96;100.00;103246.47;5087807;28;20059;-76
2023/02/14 04:47:04;;;;;;;38.63;24.70;;;;;;;-0.97;100.00;103244.69;5082556;28;20051;-77
2023/02/14 04:49:29;;;;;;;37.05;23.48;;;;;;;-1.04;100.00;103245.81;5087012;28;20111;-75
2023/02/14 04:51:55;;;;;;;37.20;23.90;;;;;;;-1.07;100.00;103240.34;5084914;28;20055;-76
2023/02/14 04:54:21;;;;;;;36.55;23.98;;;;;;;-1.08;100.00;103241.09;5085589;28;20039;-77
2023/02/14 04:56:46;;;;;;;37.95;23.75;;;;;;;-1.07;100.00;103241.22;5085621;28;20077;-76
2023/02/14 04:59:13;;;;;;;37.88;24.52;;;;;;;-1.02;100.00;103236.47;5084637;28;20448;-78
2023/02/14 05:01:38;;;;;;;36.22;23.13;;;;;;;-1.01;100.00;103232.19;5086724;28;20054;-77
2023/02/14 05:04:04;;;;;;;39.03;24.58;;;;;;;-1.02;100.00;103240.75;5083601;28;20033;-78
2023/02/14 05:06:29;;;;;;;36.92;24.35;;;;;;;-1.00;100.00;103236.63;5086833;28;20040;-79
2023/02/14 05:08:55;;;;;;;37.90;23.95;;;;;;;-1.06;100.00;103231.78;5084207;28;20024;-79
2023/02/14 05:11:21;;;;;;;38.33;24.02;;;;;;;-1.08;100.00;103223.84;5085416;28;20036;-81
2023/02/14 05:13:46;;;;;;;39.28;24.58;;;;;;;-1.07;100.00;103224.75;5085333;28;20028;-79
2023/02/14 05:16:12;;;;;;;38.03;23.65;;;;;;;-1.08;100.00;103223.84;5084050;28;20032;-81
2023/02/14 05:18:37;;;;;;;37.78;24.58;;;;;;;-0.99;100.00;103220.25;5086695;28;20032;-76
2023/02/14 05:21:03;;;;;;;39.08;24.67;;;;;;;-1.07;100.00;103216.97;5083474;28;20443;-79
2023/02/14 05:23:28;;;;;;;38.42;25.10;;;;;;;-1.06;100.00;103214.50;5086186;28;20035;-79
2023/02/14 05:25:53;;;;;;;39.80;25.80;;;;;;;-1.01;100.00;103214.91;5084458;28;20035;-82
2023/02/14 05:28:19;;;;;;;41.35;26.23;;;;;;;-0.91;100.00;103211.47;5084738;28;20033;-81
2023/02/14 05:30:45;;;;;;;40.03;25.80;;;;;;;-0.94;100.00;103214.69;5085462;28;20470;-82
2023/02/14 05:33:10;;;;;;;39.38;26.17;;;;;;;-0.97;100.00;103214.41;5082685;28;20062;-79
2023/02/14 05:35:35;;;;;;;39.13;26.00;;;;;;;-0.91;100.00;103208.84;5086502;28;20534;-81
2023/02/14 05:38:01;;;;;;;40.00;26.27;;;;;;;-0.82;100.00;103208.75;5083014;28;20032;-80
2023/02/14 05:40:27;;;;;;;44.20;31.30;;;;;;;-0.68;100.00;103218.69;5085677;28;20032;-79
2023/02/14 05:42:54;;;;;;;40.85;27.48;;;;;;;-0.82;100.00;103216.56;5082879;28;20032;-84
2023/02/14 05:45:20;;;;;;;41.05;27.75;;;;;;;-0.66;100.00;103221.41;5083858;28;20443;-78
2023/02/14 05:47:47;;;;;;;44.35;29.65;;;;;;;-0.64;100.00;103209.47;5085714;28;20083;-79
2023/02/14 05:50:12;;;;;;;38.97;26.88;;;;;;;-0.80;100.00;103213.31;5083873;28;20047;-78
2023/02/14 05:52:38;;;;;;;39.08;26.95;;;;;;;-0.80;100.00;103210.72;5084897;28;20032;-78
2023/02/14 05:55:04;;;;;;;38.00;25.73;;;;;;;-0.90;100.00;103210.69;5086409;28;20027;-80
2023/02/14 05:57:29;;;;;;;37.80;24.90;;;;;;;-0.89;100.00;103213.41;5081633;28;20066;-79
2023/02/14 05:59:54;;;;;;;40.67;26.52;;;;;;;-0.88;100.00;103212.63;5084913;28;20067;-79
2023/02/14 06:02:20;;;;;;;38.85;25.40;;;;;;;-0.91;100.00;103214.06;5084534;28;20039;-80
2023/02/14 06:04:45;;;;;;;39.40;25.88;;;;;;;-0.96;100.00;103207.53;5083502;28;20032;-79
2023/02/14 06:07:10;;;;;;;38.58;25.52;;;;;;;-0.99;100.00;103210.78;5085348;28;20024;-80
2023/02/14 06:09:36;;;;;;;39.30;26.70;;;;;;;-1.01;100.00;103203.63;5082342;28;20038;-80
2023/02/14 06:12:01;;;;;;;41.63;28.70;;;;;;;-1.01;100.00;103216.59;5085516;28;20026;-79
2023/02/14 06:14:27;;;;;;;38.70;25.77;;;;;;;-1.03;100.00;103215.53;5082971;28;20071;-80
2023/02/14 06:16:52;;;;;;;39.65;26.63;;;;;;;-0.98;100.00;103217.78;5084218;28;20395;-79
2023/02/14 06:19:18;;;;;;;39.55;26.55;;;;;;;-1.04;100.00;103219.84;5084036;28;20485;-79
2023/02/14 06:21:43;;;;;;;39.63;27.02;;;;;;;-1.10;100.00;103222.78;5083107;28;20379;-79
2023/02/14 06:24:08;;;;;;;41.75;28.73;;;;;;;-0.97;100.00;103218.72;5085171;28;20462;-80
2023/02/14 06:26:34;;;;;;;40.72;28.00;;;;;;;-1.11;100.00;103215.75;5082000;28;20391;-78
2023/02/14 06:29:01;;;;;;;40.03;26.90;;;;;;;-1.18;100.00;103221.22;5085237;28;20471;-79
2023/02/14 06:31:26;;;;;;;39.05;26.90;;;;;;;-1.21;100.00;103218.31;5082602;28;20030;-79
2023/02/14 06:33:52;;;;;;;39.95;26.05;;;;;;;-1.27;100.00;103222.97;5080713;28;20519;-76
2023/02/14 06:36:18;;;;;;;43.47;26.42;;;;;;;-1.29;100.00;103224.50;5091072;28;20032;-75
2023/02/14 06:38:43;;;;;;;41.70;27.27;;;;;;;-1.17;100.00;103235.09;5092533;28;20453;-76
2023/02/14 06:41:10;;;;;;;42.45;28.35;;;;;;;-1.17;100.00;103229.91;5092767;28;20028;-74
2023/02/14 06:43:36;;;;;;;41.65;28.75;;;;;;;-1.14;100.00;103232.78;5092663;28;20024;-74
2023/02/14 06:46:02;;;;;;;43.13;29.98;;;;;;;-1.11;100.00;103231.34;5091475;28;20051;-75
2023/02/14 06:48:28;;;;;;;43.20;29.48;;;;;;;-1.15;100.00;103230.94;5092013;28;20047;-73
2023/02/14 06:50:54;;;;;;;45.15;29.80;;;;;;;-1.12;100.00;103229.53;5091421;28;20032;-74
2023/02/14 06:53:20;;;;;;;44.70;31.05;;;;;;;-1.19;100.00;103226.22;5092342;28;20032;-74
2023/02/14 06:55:46;;;;;;;42.63;28.95;;;;;;;-1.16;100.00;103231.72;5091072;28;20028;-75
2023/02/14 06:58:11;;;;;;;45.53;31.73;;;;;;;-1.17;100.00;103227.31;5091583;28;20032;-74
2023/02/14 07:00:38;;;;;;;47.88;31.25;;;;;;;-1.18;100.00;103222.88;5092064;28;20524;-73
2023/02/14 07:03:04;;;;;;;53.05;31.02;;;;;;;-1.21;100.00;103231.28;5092821;28;20039;-74
2023/02/14 07:05:30;;;;;;;46.33;28.27;;;;;;;-1.25;100.00;103227.53;5092446;28;20039;-74
2023/02/14 07:07:56;;;;;;;52.53;32.85;;;;;;;-1.29;100.00;103232.31;5091592;28;20085;-73
2023/02/14 07:10:21;;;;;;;48.20;32.40;;;;;;;-1.37;100.00;103228.09;5092257;28;20416;-73
2023/02/14 07:12:46;;;;;;;49.40;33.67;;;;;;;-1.41;100.00;103229.50;5091847;28;20036;-75
2023/02/14 07:15:12;;;;;;;49.17;33.40;;;;;;;-1.35;100.00;103236.94;5092017;28;20077;-75
2023/02/14 07:17:37;;;;;;;46.55;31.63;;;;;;;-1.32;100.00;103242.41;5090571;28;20090;-75
2023/02/14 07:20:05;;;;;;;42.17;28.40;;;;;;;-1.29;100.00;103245.28;5091635;28;20039;-74
2023/02/14 07:22:31;;;;;;;43.65;30.45;;;;;;;-1.29;100.00;103241.00;5091569;28;20059;-74
2023/02/14 07:24:56;;;;;;;42.53;29.60;;;;;;;-1.25;100.00;103243.09;5092257;28;20166;-75
2023/02/14 07:27:21;;;;;;;43.42;30.05;;;;;;;-1.25;100.00;103237.00;5091496;28;20078;-76
2023/02/14 07:29:47;;;;;;;45.05;30.27;;;;;;;-1.23;100.00;103240.63;5092091;28;20053;-74
2023/02/14 07:32:12;;;;;;;44.88;29.60;;;;;;;-1.18;100.00;103247.16;5092171;28;20067;-76
2023/02/14 07:34:37;;;;;;;45.65;30.65;;;;;;;-1.14;100.00;103246.66;5091633;28;20543;-74
2023/02/14 07:37:03;;;;;;;43.15;29.83;;;;;;;-1.15;100.00;103247.44;5091871;28;20028;-76
2023/02/14 07:39:28;;;;;;;43.63;29.88;;;;;;;-1.09;100.00;103240.19;5090730;28;20028;-73
2023/02/14 07:41:53;;;;;;;42.97;29.10;;;;;;;-1.06;100.00;103243.06;5091300;28;20024;-74
2023/02/14 07:44:19;;;;;;;41.88;29.10;;;;;;;-1.03;100.00;103245.03;5092067;28;20024;-75
2023/02/14 07:46:44;;;;;;;42.15;28.60;;;;;;;-1.02;100.00;103232.94;5091179;28;20140;-75
2023/02/14 07:49:10;;;;;;;42.75;28.80;;;;;;;-0.93;100.00;103247.69;5091456;28;20027;-76
2023/02/14 07:51:36;;;;;;;40.17;27.88;;;;;;;-0.84;100.00;103242.41;5092111;28;20039;-75
2023/02/14 07:54:01;;;;;;;42.10;28.65;;;;;;;-0.83;100.00;103249.41;5091801;28;20371;-76
2023/02/14 07:56:27;;;;;;;43.45;29.58;;;;;;;-0.76;100.00;103241.41;5094387;28;20098;-75
2023/02/14 07:58:52;;;;;;;44.05;29.38;;;;;;;-0.67;100.00;103237.78;5095491;28;20085;-74
2023/02/14 08:01:18;;;;;;;41.50;28.85;;;;;;;-0.70;100.00;103230.59;5095778;28;20118;-74
2023/02/14 08:03:45;;;;;;;42.22;29.50;;;;;;;-0.58;100.00;103231.72;5095937;28;20032;-74
2023/02/14 08:06:11;;;;;;;43.50;30.83;;;;;;;-0.48;100.00;103227.31;5096120;28;20081;-76
2023/02/14 08:08:36;;;;;;;44.70;31.13;;;;;;;-0.44;100.00;103225.09;5095357;28;20028;-75
2023/02/14 08:11:02;;;;;;;42.15;29.75;;;;;;;-0.41;100.00;103222.78;5089230;28;20050;-75
2023/02/14 08:13:28;;;;;;;41.83;30.35;;;;;;;-0.28;100.00;103214.34;5094276;28;20039;-75
2023/02/14 08:16:06;;;;;;;45.92;32.15;;;;;;;-0.15;100.00;103226.72;5095802;28;20035;-74
2023/02/14 08:18:37;;;;;;;42.35;29.15;;;;;;;-0.05;100.00;103221.53;5095020;28;20047;-74
2023/02/14 08:21:05;;;;;;;42.88;29.90;;;;;;;0.21;100.00;103229.75;5094594;28;20024;-75
2023/02/14 08:23:31;;;;;;;43.83;30.33;;;;;;;0.51;100.00;103215.75;5095288;28;20081;-76
2023/02/14 08:25:56;;;;;;;43.88;30.38;;;;;;;0.74;100.00;103227.19;5094007;28;20024;-76
2023/02/14 08:28:22;;;;;;;42.72;30.48;;;;;;;0.97;100.00;103226.47;5095238;28;20024;-76
2023/02/14 08:30:48;;;;;;;39.58;29.23;;;;;;;1.06;100.00;103228.91;5095535;28;20028;-75
2023/02/14 08:33:14;;;;;;;40.33;29.08;;;;;;;1.41;100.00;103226.53;5095137;28;20028;-76
2023/02/14 08:35:39;;;;;;;42.42;30.38;;;;;;;1.70;100.00;103233.13;5094899;28;20382;-76
2023/02/14 08:38:05;;;;;;;40.20;29.90;;;;;;;1.91;100.00;103228.72;5095008;28;20032;-76
2023/02/14 08:40:30;;;;;;;39.03;29.20;;;;;;;2.12;100.00;103234.66;5094899;28;20020;-76
2023/02/14 08:42:56;;;;;;;38.55;28.27;;;;;;;2.41;100.00;103234.28;5095266;28;20043;-76
2023/02/14 08:45:21;;;;;;;41.03;29.90;;;;;;;2.69;100.00;103232.84;5095110;28;20036;-76
2023/02/14 08:47:47;;;;;;;38.50;28.30;;;;;;;2.97;100.00;103233.16;5093924;28;20052;-76
2023/02/14 08:50:15;;;;;;;37.50;27.65;;;;;;;3.23;100.00;103239.38;5076565;28;20486;-76
2023/02/14 08:52:45;;;;;;;37.53;27.13;;;;;;;3.46;100.00;103231.50;5092973;28;20028;-76
2023/02/14 08:55:12;;;;;;;36.60;27.45;;;;;;;3.77;100.00;103232.75;5086952;28;20467;-76
2023/02/14 08:57:38;;;;;;;37.22;27.38;;;;;;;3.93;100.00;103227.81;5083789;28;20112;-76
2023/02/14 09:00:05;;;;;;;37.08;26.77;;;;;;;4.11;100.00;103220.31;5083572;28;20028;-76
2023/02/14 09:02:31;;;;;;;37.10;26.60;;;;;;;4.30;100.00;103222.47;5086759;28;20496;-79
2023/02/14 09:04:56;;;;;;;36.28;24.77;;;;;;;4.68;100.00;103225.88;5083448;28;20025;-76
2023/02/14 09:07:21;;;;;;;37.20;26.25;;;;;;;5.04;100.00;103229.09;5083905;28;20035;-79
2023/02/14 09:09:47;;;;;;;33.63;24.45;;;;;;;5.41;100.00;103229.72;5085731;28;20123;-76
2023/02/14 09:12:12;;;;;;;35.05;24.50;;;;;;;5.70;100.00;103228.03;5084686;28;20032;-81
2023/02/14 09:14:42;;;;;;;34.35;24.02;;;;;;;6.11;100.00;103224.44;5083399;28;20046;-77
2023/02/14 09:17:08;;;;;;;33.22;22.60;;;;;;;6.36;100.00;103222.38;5093616;28;20020;-77
2023/02/14 09:19:35;;;;;;;32.70;21.90;;;;;;;6.49;100.00;103229.28;5094010;28;20435;-76
2023/02/14 09:22:05;;;;;;;33.08;22.45;;;;;;;6.54;100.00;103222.56;5092498;28;20039;-76
2023/02/14 09:24:32;;;;;;;31.52;21.17;;;;;;;6.65;100.00;103225.84;5092713;28;20459;-76
2023/02/14 09:26:58;;;;;;;31.23;20.85;;;;;;;6.69;100.00;103222.56;5094281;28;20119;-76
2023/02/14 09:29:24;;;;;;;31.63;20.75;;;;;;;6.71;100.00;103231.44;5093808;28;20115;-76
2023/02/14 09:31:55;;;;;;;31.00;21.05;;;;;;;6.79;100.00;103227.53;5093048;28;20108;-77
2023/02/14 09:39:48;;;;;;;33.03;22.05;;;;;;;7.18;100.00;103214.84;5094511;28;20043;-82
2023/02/14 09:42:40;;;;;;;31.65;20.65;;;;;;;7.27;100.00;103211.84;5094051;28;20467;-77
2023/02/14 09:45:15;;;;;;;32.00;20.48;;;;;;;7.29;100.00;103213.69;5091810;28;20024;-81
2023/02/14 09:47:56;;;;;;;31.95;21.77;;;;;;;7.38;100.00;103217.69;5082572;28;20154;-83
2023/02/14 09:50:29;;;;;;;31.90;21.10;;;;;;;7.62;100.00;103207.59;5082684;28;20108;-81
2023/02/14 09:53:02;;;;;;;32.08;21.38;;;;;;;7.81;100.00;103207.75;5083164;28;20571;-82
2023/02/14 09:55:38;;;;;;;32.10;21.23;;;;;;;7.82;100.00;103211.28;5090796;28;20028;-83
2023/02/14 09:58:12;;;;;;;33.72;21.98;;;;;;;7.68;100.00;103200.91;5090976;28;20544;-82
2023/02/14 10:00:45;;;;;;;33.03;22.15;;;;;;;8.01;100.00;103200.91;5093837;28;20051;-80
2023/02/14 10:03:39;;;;;;;31.95;21.38;;;;;;;8.34;100.00;103198.22;5093079;28;20364;-83
2023/02/14 10:06:04;;;;;;;33.33;21.83;;;;;;;8.62;100.00;103204.00;5092270;28;20074;-82
2023/02/14 10:08:50;;;;;;;32.97;21.55;;;;;;;8.88;100.00;103192.09;5093002;28;20052;-83
2023/02/14 10:11:19;;;;;;;31.30;20.85;;;;;;;9.06;100.00;103198.25;5090280;28;20479;-77
2023/02/14 10:13:50;;;;;;;31.02;20.00;;;;;;;9.10;100.00;103204.59;5091966;28;20024;-79
2023/02/14 10:16:31;;;;;;;32.17;20.58;;;;;;;9.31;100.00;103194.16;5093209;28;20032;-77
2023/02/14 10:19:02;;;;;;;32.05;20.65;;;;;;;9.59;100.00;103206.00;5092158;28;20028;-76
2023/02/14 10:21:33;;;;;;;30.67;19.73;;;;;;;9.68;100.00;103198.47;5092204;28;20036;-79
2023/02/14 10:24:26;;;;;;;30.90;19.95;;;;;;;9.89;100.00;103197.66;5092449;28;20020;-76
2023/02/14 10:26:57;;;;;;;29.35;19.02;;;;;;;10.34;100.00;103189.97;5091443;28;20020;-78
2023/02/14 10:29:23;;;;;;;30.58;18.83;;;;;;;10.89;100.00;103198.38;5092594;28;20455;-80
2023/02/14 10:31:57;;;;;;;30.20;18.92;;;;;;;11.77;100.00;103196.47;5093079;28;20035;-84
2023/02/14 10:34:46;;;;;;;29.10;19.08;;;;;;;11.98;100.00;103194.59;5092627;28;20475;-83
2023/02/14 10:37:21;;;;;;;30.15;19.05;;;;;;;12.17;100.00;103192.59;5091065;28;20028;-83
2023/02/14 10:40:08;;;;;;;29.77;18.67;;;;;;;12.59;100.00;103180.75;5089310;28;20028;-81
2023/02/14 10:42:33;;;;;;;30.10;18.50;;;;;;;13.30;100.00;103175.03;5086760;28;20032;-76
2023/02/14 10:45:08;;;;;;;29.95;18.48;;;;;;;14.27;100.00;103181.34;5092424;28;20077;-75
2023/02/14 10:47:48;;;;;;;28.20;18.33;;;;;;;15.51;100.00;103173.59;5091997;28;20051;-75
2023/02/14 10:50:30;;;;;;;28.83;18.05;;;;;;;16.31;66.82;103180.47;5092469;28;20031;-76
2023/02/14 10:53:37;;;;;;;29.02;18.15;;;;;;;17.07;60.33;103174.56;5091587;28;20039;-76
2023/02/14 10:56:20;;;;;;;28.33;17.75;;;;;;;16.99;54.23;103170.88;5081264;28;20059;-79
2023/02/14 10:58:49;;;;;;;28.38;17.40;;;;;;;17.69;49.24;103177.13;5090439;28;20495;-75
2023/02/14 11:01:17;;;;;;;29.25;18.42;;;;;;;17.74;49.26;103170.06;5092456;28;20447;-78
2023/02/14 11:04:05;;;;;;;27.95;17.23;;;;;;;18.33;49.43;103165.31;5087806;28;20042;-76
2023/02/14 11:06:30;;;;;;;28.30;17.52;;;;;;;18.55;43.59;103161.94;5081199;28;20483;-77
2023/02/14 11:08:56;;;;;;;28.00;18.15;;;;;;;17.76;44.61;103160.25;5084420;28;20063;-75
2023/02/14 11:11:37;;;;;;;29.23;18.63;;;;;;;18.30;45.20;103150.09;5081865;28;20051;-75
2023/02/14 11:14:35;;;;;;;28.10;17.77;;;;;;;18.93;46.65;103152.38;5081270;28;20032;-75
2023/02/14 11:17:30;;;;;;;28.30;18.27;;;;;;;18.87;46.72;103149.66;5081180;28;20048;-74
2023/02/14 11:19:58;;;;;;;29.75;18.10;;;;;;;19.86;41.83;103153.66;5084542;28;20360;-75
2023/02/14 11:22:32;;;;;;;29.35;18.33;;;;;;;19.91;39.64;103151.00;5081764;28;20108;-77
2023/02/14 11:25:12;;;;;;;29.95;17.65;;;;;;;20.29;39.66;103147.47;5081203;28;20426;-77
2023/02/14 11:27:41;;;;;;;29.70;18.23;;;;;;;20.55;38.52;103142.97;5081734;28;20029;-74
2023/02/14 11:30:21;;;;;;;28.75;17.73;;;;;;;21.12;39.72;103141.97;5082918;28;20036;-75
2023/02/14 11:32:54;;;;;;;28.85;17.13;;;;;;;21.38;36.98;103135.59;5082906;28;20078;-78
2023/02/14 11:35:29;;;;;;;29.33;17.35;;;;;;;20.97;36.59;103137.53;5081939;28;20483;-74